Time;durP1;ratioP1;P1;durP2;ratioP2;P2;SDS_P1;SDS_P2;PMS_P1;PMS_P2;Temp;Humidity;BMP_temperature;BMP_pressure;BME280_temperature;BME280_humidity;BME280_pressure;Samples;Min_cycle;Max_cycle;Signal;HPM_P1;HPM_P2
2023/08/22 00:06:32;;;;;;;;;;;21.40;99.90;;;;;;6691620;88;20511;-77
2023/08/22 00:16:33;;;;;;;;;;;21.40;99.90;;;;;;6694769;88;20508;-77
2023/08/22 00:26:33;;;;;;;;;;;21.30;99.90;;;;;;6691184;88;20085;-78
2023/08/22 00:36:34;;;;;;;;;;;21.10;99.90;;;;;;6694153;88;20082;-77
2023/08/22 00:46:34;;;;;;;;;;;21.10;99.90;;;;;;6689544;88;20077;-77
2023/08/22 00:56:35;;;;;;;;;;;21.10;99.90;;;;;;6685516;88;20053;-77
2023/08/22 01:06:40;;;;;;;;;;;21.20;99.90;;;;;;6685640;88;20120;-77
2023/08/22 01:16:41;;;;;;;;;;;21.10;99.90;;;;;;6682222;89;20106;-77
2023/08/22 01:26:43;;;;;;;;;;;21.00;99.90;;;;;;6691885;88;20115;-78
2023/08/22 01:36:45;;;;;;;;;;;21.00;99.90;;;;;;6686613;88;20048;-76
2023/08/22 01:46:45;;;;;;;;;;;20.90;99.90;;;;;;6667053;89;20120;-78
2023/08/22 01:56:46;;;;;;;;;;;20.90;99.90;;;;;;6665636;89;20085;-76
2023/08/22 02:06:46;;;;;;;;;;;20.70;99.90;;;;;;6650437;89;20193;-78
2023/08/22 02:16:47;;;;;;;;;;;20.50;99.90;;;;;;6666980;89;20479;-77
2023/08/22 02:26:47;;;;;;;;;;;20.40;99.90;;;;;;6667525;89;20053;-77
2023/08/22 02:36:48;;;;;;;;;;;20.00;99.90;;;;;;6666933;89;20123;-76
2023/08/22 02:46:48;;;;;;;;;;;20.00;99.90;;;;;;6666833;89;20132;-77
2023/08/22 02:56:49;;;;;;;;;;;20.00;99.90;;;;;;6667228;89;20147;-77
2023/08/22 03:06:49;;;;;;;;;;;20.00;99.90;;;;;;6683303;89;20067;-77
2023/08/22 03:16:50;;;;;;;;;;;19.80;99.90;;;;;;6683393;89;20547;-77
2023/08/22 03:26:50;;;;;;;;;;;19.90;99.90;;;;;;6695506;88;20883;-77
2023/08/22 03:36:51;;;;;;;;;;;19.70;99.90;;;;;;6686090;88;20446;-77
2023/08/22 03:46:51;;;;;;;;;;;19.70;99.90;;;;;;6686257;88;20068;-77
2023/08/22 03:56:54;;;;;;;;;;;19.60;99.90;;;;;;6685336;88;20073;-77
2023/08/22 04:06:55;;;;;;;;;;;19.60;99.90;;;;;;6686403;88;20148;-78
2023/08/22 04:16:55;;;;;;;;;;;19.50;99.90;;;;;;6687381;88;20121;-78
2023/08/22 04:26:56;;;;;;;;;;;19.40;99.90;;;;;;6685014;88;20060;-77
2023/08/22 04:36:56;;;;;;;;;;;19.20;99.90;;;;;;6687876;88;20059;-78
2023/08/22 04:46:57;;;;;;;;;;;19.10;99.90;;;;;;6689078;88;20067;-78
2023/08/22 04:56:57;;;;;;;;;;;19.00;99.90;;;;;;6691222;88;20099;-77
2023/08/22 05:06:57;;;;;;;;;;;18.80;99.90;;;;;;6687827;88;20553;-77
2023/08/22 05:16:58;;;;;;;;;;;18.60;99.90;;;;;;6696021;88;20060;-79
2023/08/22 05:26:59;;;;;;;;;;;18.60;99.90;;;;;;6690349;88;20076;-78
2023/08/22 05:36:59;;;;;;;;;;;18.80;99.90;;;;;;6700522;88;20129;-77
2023/08/22 05:47:01;;;;;;;;;;;19.00;99.90;;;;;;6701456;88;20564;-77
2023/08/22 05:57:02;;;;;;;;;;;19.20;99.90;;;;;;6684807;88;20237;-77
2023/08/22 06:07:02;;;;;;;;;;;19.50;99.90;;;;;;6683908;88;20101;-78
2023/08/22 06:17:03;;;;;;;;;;;19.90;99.90;;;;;;6683669;88;20138;-77
2023/08/22 06:27:03;;;;;;;;;;;20.50;99.90;;;;;;6683767;88;20118;-77
2023/08/22 06:37:06;;;;;;;;;;;21.20;99.90;;;;;;6684408;88;20076;-76
2023/08/22 06:47:06;;;;;;;;;;;21.10;99.90;;;;;;6680831;89;20060;-77
2023/08/22 06:57:07;;;;;;;;;;;21.10;99.90;;;;;;6692628;77;20555;-79
2023/08/22 07:07:08;;;;;;;;;;;21.90;99.90;;;;;;6701388;88;20167;-79
2023/08/22 07:17:08;;;;;;;;;;;22.50;99.90;;;;;;6709268;88;20556;-79
2023/08/22 07:27:12;;;;;;;;;;;23.40;99.90;;;;;;6702428;88;20614;-80
2023/08/22 07:37:13;;;;;;;;;;;24.00;99.90;;;;;;6704672;88;20061;-80
2023/08/22 07:47:13;;;;;;;;;;;24.30;99.90;;;;;;6713559;88;20091;-79
2023/08/22 07:57:13;;;;;;;;;;;25.60;99.90;;;;;;6701108;88;20100;-80
2023/08/22 08:07:15;;;;;;;;;;;26.20;99.90;;;;;;6716177;88;20060;-80
2023/08/22 08:17:17;;;;;;;;;;;26.50;99.90;;;;;;6705982;88;20070;-80
2023/08/22 08:27:17;;;;;;;;;;;26.80;99.90;;;;;;6709596;88;20218;-80
2023/08/22 08:37:19;;;;;;;;;;;27.20;99.90;;;;;;6707120;88;20236;-80
2023/08/22 08:47:19;;;;;;;;;;;28.40;99.90;;;;;;6705776;88;20761;-78
2023/08/22 08:57:20;;;;;;;;;;;28.60;99.90;;;;;;6702847;88;20063;-79
2023/08/22 09:07:21;;;;;;;;;;;29.50;99.90;;;;;;6701538;88;20590;-78
2023/08/22 09:17:21;;;;;;;;;;;29.10;99.90;;;;;;6701694;88;20489;-79
2023/08/22 09:27:25;;;;;;;;;;;29.70;99.90;;;;;;6705531;88;20066;-78
2023/08/22 09:37:32;;;;;;;;;;;29.60;99.90;;;;;;6709488;88;20105;-79
2023/08/22 09:47:37;;;;;;;;;;;30.30;99.90;;;;;;6702591;88;20148;-78
2023/08/22 09:57:38;;;;;;;;;;;31.00;99.90;;;;;;6702631;88;20060;-79
2023/08/22 10:07:39;;;;;;;;;;;30.90;99.90;;;;;;6704418;88;20050;-79
2023/08/22 10:17:40;;;;;;;;;;;31.90;98.70;;;;;;6703892;88;20073;-82
2023/08/22 10:27:45;;;;;;;;;;;30.80;99.40;;;;;;6701748;88;20059;-79
2023/08/22 10:37:47;;;;;;;;;;;31.90;97.60;;;;;;6702879;88;20429;-78
2023/08/22 10:48:03;;;;;;;;;;;32.00;96.90;;;;;;6697617;88;20101;-79
2023/08/22 10:58:04;;;;;;;;;;;32.00;97.80;;;;;;6715946;88;20029;-80
2023/08/22 11:08:05;;;;;;;;;;;31.10;98.90;;;;;;6714289;88;20179;-81
2023/08/22 11:18:05;;;;;;;;;;;31.40;98.70;;;;;;6696572;88;20819;-77
2023/08/22 11:28:06;;;;;;;;;;;32.00;98.10;;;;;;6701582;88;20076;-76
2023/08/22 11:38:06;;;;;;;;;;;32.10;97.20;;;;;;6691583;88;20123;-75
2023/08/22 11:48:09;;;;;;;;;;;32.80;95.50;;;;;;6697166;88;20500;-77
2023/08/22 11:58:12;;;;;;;;;;;31.50;95.80;;;;;;6698447;88;20056;-77
2023/08/22 12:08:12;;;;;;;;;;;31.30;96.70;;;;;;6697069;88;20076;-77
2023/08/22 12:18:13;;;;;;;;;;;31.20;97.20;;;;;;6696474;88;20135;-77
2023/08/22 12:28:14;;;;;;;;;;;31.80;96.60;;;;;;6706120;88;20109;-77
2023/08/22 12:38:14;;;;;;;;;;;33.20;94.60;;;;;;6700955;88;20130;-77
2023/08/22 12:48:15;;;;;;;;;;;33.00;94.80;;;;;;6699451;88;20586;-78
2023/08/22 12:58:15;;;;;;;;;;;33.10;94.10;;;;;;6701282;88;20059;-78
2023/08/22 13:08:16;;;;;;;;;;;32.40;93.60;;;;;;6701710;88;20079;-77
2023/08/22 13:18:17;;;;;;;;;;;31.30;94.80;;;;;;6698792;88;20073;-79
2023/08/22 13:28:17;;;;;;;;;;;32.40;94.10;;;;;;6694295;88;20150;-78
2023/08/22 13:38:18;;;;;;;;;;;32.30;94.70;;;;;;6698875;88;20499;-78
2023/08/22 13:48:18;;;;;;;;;;;32.80;94.60;;;;;;6699211;88;20111;-78
2023/08/22 13:58:18;;;;;;;;;;;32.10;94.80;;;;;;6704704;88;20476;-78
2023/08/22 14:08:19;;;;;;;;;;;32.10;94.50;;;;;;6699531;88;20059;-78
2023/08/22 14:18:19;;;;;;;;;;;33.20;94.30;;;;;;6698217;88;20087;-78
2023/08/22 14:28:20;;;;;;;;;;;32.30;94.50;;;;;;6699647;88;20101;-77
2023/08/22 14:38:20;;;;;;;;;;;31.80;95.20;;;;;;6698050;88;20116;-78
2023/08/22 14:48:21;;;;;;;;;;;31.10;95.80;;;;;;6696019;88;20111;-77
2023/08/22 14:58:22;;;;;;;;;;;31.50;95.30;;;;;;6698007;88;20899;-78
2023/08/22 15:08:23;;;;;;;;;;;32.00;94.50;;;;;;6698966;88;20113;-78
2023/08/22 15:18:23;;;;;;;;;;;31.20;94.40;;;;;;6698598;88;20063;-77
2023/08/22 15:28:24;;;;;;;;;;;30.50;94.70;;;;;;6701261;88;20083;-76
2023/08/22 15:38:29;;;;;;;;;;;30.10;95.10;;;;;;6702036;88;20188;-77
2023/08/22 15:48:30;;;;;;;;;;;30.20;94.70;;;;;;6698983;88;20065;-76
2023/08/22 15:58:31;;;;;;;;;;;30.00;94.20;;;;;;6695680;88;20146;-76
2023/08/22 16:08:32;;;;;;;;;;;29.60;93.60;;;;;;6698979;88;20072;-77
2023/08/22 16:18:32;;;;;;;;;;;28.90;92.50;;;;;;6701238;88;20082;-77
2023/08/22 16:28:33;;;;;;;;;;;28.70;92.00;;;;;;6698186;88;20146;-78
2023/08/22 16:38:33;;;;;;;;;;;28.70;92.30;;;;;;6697206;88;20451;-78
2023/08/22 16:48:34;;;;;;;;;;;28.40;94.10;;;;;;6708133;88;20077;-79
2023/08/22 16:58:38;;;;;;;;;;;29.00;94.00;;;;;;6719836;88;20221;-80
2023/08/22 17:08:39;;;;;;;;;;;29.50;93.70;;;;;;6707225;88;20634;-79
2023/08/22 17:18:40;;;;;;;;;;;28.30;94.40;;;;;;6698898;88;20196;-80
2023/08/22 17:28:40;;;;;;;;;;;27.50;94.40;;;;;;6703971;88;20063;-79
2023/08/22 17:38:42;;;;;;;;;;;27.40;94.80;;;;;;6703530;88;20128;-79
2023/08/22 17:48:42;;;;;;;;;;;27.20;95.80;;;;;;6708213;88;20110;-80
2023/08/22 17:58:45;;;;;;;;;;;27.10;96.60;;;;;;6702307;88;20088;-80
2023/08/22 18:08:45;;;;;;;;;;;26.70;97.30;;;;;;6699271;88;20075;-79
2023/08/22 18:18:46;;;;;;;;;;;26.30;97.40;;;;;;6710213;88;20584;-79
2023/08/22 18:28:46;;;;;;;;;;;26.00;97.00;;;;;;6703175;88;20081;-78
2023/08/22 18:38:47;;;;;;;;;;;25.70;97.90;;;;;;6702499;88;20110;-80
2023/08/22 18:48:47;;;;;;;;;;;25.40;99.50;;;;;;6704201;88;20608;-80
2023/08/22 18:58:47;;;;;;;;;;;25.20;99.90;;;;;;6716959;88;20645;-78
2023/08/22 19:08:48;;;;;;;;;;;24.90;99.90;;;;;;6709754;88;20047;-78
2023/08/22 19:18:48;;;;;;;;;;;24.70;99.90;;;;;;6720778;88;20059;-78
2023/08/22 19:28:49;;;;;;;;;;;24.40;99.90;;;;;;6715345;88;20069;-78
2023/08/22 19:38:49;;;;;;;;;;;24.00;99.90;;;;;;6704814;88;20089;-77
2023/08/22 19:48:50;;;;;;;;;;;23.80;99.90;;;;;;6715275;88;20116;-78
2023/08/22 19:58:50;;;;;;;;;;;23.50;99.90;;;;;;6704750;88;20060;-78
2023/08/22 20:08:51;;;;;;;;;;;23.30;99.90;;;;;;6704543;88;20082;-78
2023/08/22 20:18:51;;;;;;;;;;;23.10;99.90;;;;;;6704686;88;20167;-79
2023/08/22 20:28:51;;;;;;;;;;;22.90;99.90;;;;;;6707103;88;20066;-78
2023/08/22 20:38:52;;;;;;;;;;;22.70;99.90;;;;;;6698791;88;20089;-76
2023/08/22 20:48:52;;;;;;;;;;;22.50;99.90;;;;;;6697797;88;20071;-77
2023/08/22 20:58:53;;;;;;;;;;;22.20;99.90;;;;;;6698838;88;20140;-77
2023/08/22 21:08:53;;;;;;;;;;;21.90;99.90;;;;;;6705533;88;20506;-76
2023/08/22 21:18:54;;;;;;;;;;;21.80;99.90;;;;;;6700562;88;20141;-75
2023/08/22 21:28:54;;;;;;;;;;;21.70;99.90;;;;;;6695771;88;20090;-75
2023/08/22 21:38:55;;;;;;;;;;;21.60;99.90;;;;;;6694964;88;20142;-75
2023/08/22 21:48:55;;;;;;;;;;;21.40;99.90;;;;;;6695765;88;20258;-75
2023/08/22 21:58:56;;;;;;;;;;;21.30;99.90;;;;;;6695340;88;20550;-75
2023/08/22 22:08:56;;;;;;;;;;;21.20;99.90;;;;;;6697705;88;20129;-76
2023/08/22 22:18:57;;;;;;;;;;;21.00;99.90;;;;;;6704982;88;20064;-77
2023/08/22 22:28:57;;;;;;;;;;;20.80;99.90;;;;;;6692388;88;20065;-77
2023/08/22 22:38:58;;;;;;;;;;;20.40;99.90;;;;;;6693038;88;20044;-77
2023/08/22 22:48:59;;;;;;;;;;;20.20;99.90;;;;;;6695740;88;20557;-77
2023/08/22 22:59:00;;;;;;;;;;;20.00;99.90;;;;;;6698072;88;20072;-76
2023/08/22 23:09:00;;;;;;;;;;;19.80;99.90;;;;;;6697846;88;20626;-76
2023/08/22 23:19:01;;;;;;;;;;;19.80;99.90;;;;;;6707829;88;20056;-76
2023/08/22 23:29:01;;;;;;;;;;;19.50;99.90;;;;;;6697908;88;20067;-75
2023/08/22 23:39:03;;;;;;;;;;;19.30;99.90;;;;;;6696777;88;20509;-76
2023/08/22 23:49:04;;;;;;;;;;;19.00;99.90;;;;;;6693338;88;20086;-76
2023/08/22 23:59:04;;;;;;;;;;;18.70;99.90;;;;;;6692144;88;20132;-75
